Time;durP1;ratioP1;P1;durP2;ratioP2;P2;SDS_P1;SDS_P2;PMS_P1;PMS_P2;Temp;Humidity;BMP_temperature;BMP_pressure;BME280_temperature;BME280_humidity;BME280_pressure;Samples;Min_cycle;Max_cycle;Signal;HPM_P1;HPM_P2
2022/12/15 00:40:58;;;;;;;42.00;20.67;;;-0.80;99.90;;;;;;5065851;28;20121;-69
2022/12/15 00:43:28;;;;;;;45.78;22.13;;;-0.80;99.90;;;;;;5062396;28;20067;-69
2022/12/15 00:48:43;;;;;;;45.75;21.30;;;-0.70;99.90;;;;;;4995200;28;20114;-70
2022/12/15 00:51:10;;;;;;;40.15;21.10;;;-0.70;99.90;;;;;;4980523;28;20118;-70
2022/12/15 01:21:05;;;;;;;35.72;18.98;;;-1.30;99.90;;;;;;4992061;28;20499;-70
2022/12/15 01:23:32;;;;;;;37.97;20.08;;;-1.30;99.90;;;;;;4986216;28;20447;-70
2022/12/15 01:25:57;;;;;;;41.67;21.27;;;-1.30;99.90;;;;;;5035210;28;20504;-70
2022/12/15 01:28:24;;;;;;;43.55;22.45;;;-1.30;99.90;;;;;;5054202;28;20024;-70
2022/12/15 01:30:50;;;;;;;43.70;22.13;;;-1.30;99.90;;;;;;5071985;28;20029;-69
2022/12/15 01:33:17;;;;;;;40.78;21.50;;;-1.20;99.90;;;;;;5071999;28;20036;-70
2022/12/15 01:35:42;;;;;;;42.65;20.88;;;-1.20;99.90;;;;;;5060617;28;20033;-68
2022/12/15 01:38:09;;;;;;;40.95;20.50;;;-1.30;99.90;;;;;;5066492;28;20027;-70
2022/12/15 01:40:44;;;;;;;39.28;19.83;;;-1.30;99.90;;;;;;5063228;28;20103;-69
2022/12/15 01:43:21;;;;;;;43.85;20.02;;;-1.30;99.90;;;;;;5067628;28;20028;-69
2022/12/15 01:46:15;;;;;;;43.22;21.85;;;-1.40;99.90;;;;;;5072068;28;20039;-69
2022/12/15 01:48:43;;;;;;;39.63;19.27;;;-1.40;99.90;;;;;;5055122;28;20045;-69
2022/12/15 01:51:21;;;;;;;47.38;21.15;;;-1.40;99.90;;;;;;5067142;28;20488;-69
2022/12/15 01:54:09;;;;;;;42.95;20.75;;;-1.40;99.90;;;;;;5065833;28;20033;-69
2022/12/15 01:56:48;;;;;;;42.78;20.35;;;-1.40;99.90;;;;;;5066109;28;20047;-70
2022/12/15 01:59:19;;;;;;;39.65;21.30;;;-1.50;99.90;;;;;;5058968;28;20036;-69
2022/12/15 02:01:45;;;;;;;43.38;20.60;;;-1.50;99.90;;;;;;5061171;28;20024;-70
2022/12/15 02:04:12;;;;;;;43.95;20.83;;;-1.50;99.90;;;;;;5068601;28;20037;-70
2022/12/15 02:06:38;;;;;;;40.63;21.02;;;-1.50;99.90;;;;;;5066740;28;20037;-69
2022/12/15 02:09:04;;;;;;;45.40;22.95;;;-1.50;99.90;;;;;;5066412;28;20020;-70
2022/12/15 02:12:08;;;;;;;49.35;23.10;;;-1.50;99.90;;;;;;5067253;28;20077;-69
2022/12/15 02:14:39;;;;;;;40.22;21.23;;;-1.50;99.90;;;;;;5056122;28;20055;-69
2022/12/15 02:17:17;;;;;;;40.97;20.42;;;-1.60;99.90;;;;;;5070883;28;20033;-70
2022/12/15 02:20:11;;;;;;;44.67;21.98;;;-1.60;99.90;;;;;;5062501;28;20020;-70
2022/12/15 02:23:14;;;;;;;42.50;20.13;;;-1.60;99.90;;;;;;5053063;28;20107;-69
2022/12/15 02:25:58;;;;;;;43.33;21.20;;;-1.60;99.90;;;;;;5066303;28;20111;-69
2022/12/15 02:28:29;;;;;;;47.17;21.67;;;-1.70;99.90;;;;;;5058213;28;20024;-70
2022/12/15 02:33:56;;;;;;;47.65;23.52;;;-1.70;99.90;;;;;;5068078;28;20027;-69
2022/12/15 02:36:32;;;;;;;50.75;24.83;;;-1.70;99.90;;;;;;5064604;28;20033;-70
2022/12/15 02:38:58;;;;;;;48.85;25.13;;;-1.70;99.90;;;;;;5059850;28;20090;-70
2022/12/15 02:41:32;;;;;;;54.17;25.25;;;-1.60;99.90;;;;;;5070415;28;20504;-70
2022/12/15 02:44:01;;;;;;;52.97;25.73;;;-1.60;99.90;;;;;;5061622;28;20482;-70
2022/12/15 02:46:45;;;;;;;48.28;25.52;;;-1.60;99.90;;;;;;5066943;28;20033;-69
2022/12/15 02:49:21;;;;;;;54.08;24.52;;;-1.50;99.90;;;;;;5067362;28;20082;-69
2022/12/15 02:52:24;;;;;;;50.83;24.98;;;-1.40;99.90;;;;;;5071408;28;20033;-70
2022/12/15 02:55:15;;;;;;;53.75;25.17;;;-1.40;99.90;;;;;;5061321;28;20074;-70
2022/12/15 02:58:15;;;;;;;58.58;26.60;;;-1.30;99.90;;;;;;5065647;28;20025;-70
2022/12/15 03:00:48;;;;;;;51.45;25.45;;;-1.30;99.90;;;;;;5031074;28;20082;-70
2022/12/15 03:03:19;;;;;;;53.15;25.48;;;-1.30;99.90;;;;;;5062909;28;20386;-70
2022/12/15 03:05:46;;;;;;;61.03;27.58;;;-1.20;99.90;;;;;;5070514;28;20067;-69
2022/12/15 03:08:12;;;;;;;55.38;26.08;;;-1.20;99.90;;;;;;5068430;28;20029;-70
2022/12/15 03:10:38;;;;;;;52.97;25.45;;;-1.20;99.90;;;;;;5051657;28;20032;-70
2022/12/15 03:13:03;;;;;;;52.67;26.02;;;-1.30;99.90;;;;;;5069843;28;20398;-70
2022/12/15 03:15:29;;;;;;;59.28;26.65;;;-1.30;99.90;;;;;;5070516;28;20021;-70
2022/12/15 03:17:54;;;;;;;57.95;27.10;;;-1.20;99.90;;;;;;5061770;28;20043;-70
2022/12/15 03:20:20;;;;;;;52.58;27.10;;;-1.20;99.90;;;;;;5068112;28;20028;-71
2022/12/15 03:22:45;;;;;;;55.05;28.02;;;-1.20;99.90;;;;;;5068150;28;20017;-70
2022/12/15 03:25:11;;;;;;;53.33;26.55;;;-1.20;99.90;;;;;;5070422;28;20028;-70
2022/12/15 03:27:37;;;;;;;53.92;25.92;;;-1.20;99.90;;;;;;5070441;28;20027;-70
2022/12/15 03:30:04;;;;;;;54.60;27.25;;;-1.20;99.90;;;;;;5073493;28;20090;-70
2022/12/15 03:32:30;;;;;;;52.15;27.27;;;-1.20;99.90;;;;;;5056298;28;20105;-69
2022/12/15 03:34:56;;;;;;;52.25;25.83;;;-1.10;99.90;;;;;;5056347;28;20140;-70
2022/12/15 03:37:23;;;;;;;52.83;26.27;;;-1.20;99.90;;;;;;5072776;28;20734;-69
2022/12/15 03:39:50;;;;;;;56.47;26.67;;;-1.20;99.90;;;;;;5082492;28;20373;-70
2022/12/15 03:42:47;;;;;;;53.63;26.17;;;-1.10;99.90;;;;;;5074342;28;20028;-70
2022/12/15 03:45:01;;;;;;;47.65;25.30;;;-1.10;99.90;;;;;;5063791;28;20084;-70
2022/12/15 03:47:27;;;;;;;59.55;26.38;;;-1.10;99.90;;;;;;5064890;28;20437;-70
2022/12/15 03:49:53;;;;;;;55.30;25.40;;;-1.10;99.90;;;;;;5073765;28;20017;-70
2022/12/15 03:52:18;;;;;;;48.45;24.52;;;-1.10;99.90;;;;;;5073343;28;20056;-70
2022/12/15 03:54:44;;;;;;;54.03;25.55;;;-1.00;99.90;;;;;;5055790;28;20478;-70
2022/12/15 03:57:09;;;;;;;48.17;24.33;;;-1.10;99.90;;;;;;5065477;28;20043;-70
2022/12/15 03:59:35;;;;;;;48.63;23.50;;;-1.10;99.90;;;;;;5070098;28;20044;-70
2022/12/15 04:02:02;;;;;;;47.63;22.38;;;-1.10;99.90;;;;;;5070105;28;20419;-70
2022/12/15 04:04:28;;;;;;;39.60;20.20;;;-1.10;99.90;;;;;;5061828;28;20107;-70
2022/12/15 04:06:53;;;;;;;43.67;21.05;;;-1.00;99.90;;;;;;5073266;28;20098;-70
2022/12/15 04:09:19;;;;;;;43.55;21.10;;;-1.10;99.90;;;;;;5072311;28;20024;-70
2022/12/15 04:11:45;;;;;;;43.42;21.42;;;-1.10;99.90;;;;;;5069785;28;20033;-69
2022/12/15 04:14:11;;;;;;;44.35;22.63;;;-1.10;99.90;;;;;;5066437;28;20021;-70
2022/12/15 04:16:36;;;;;;;45.88;20.73;;;-1.10;99.90;;;;;;5063971;28;20219;-70
2022/12/15 04:21:46;;;;;;;42.80;21.17;;;-1.10;99.90;;;;;;5073290;28;20086;-70
2022/12/15 05:32:39;;;;;;;45.28;23.38;;;-1.00;99.90;;;;;;5065418;28;20046;-70
2022/12/15 05:35:05;;;;;;;45.50;21.95;;;-1.00;99.90;;;;;;5066516;28;20029;-70
2022/12/15 05:37:31;;;;;;;45.70;22.98;;;-1.00;99.90;;;;;;5071997;28;20028;-69
2022/12/15 05:39:56;;;;;;;46.42;24.35;;;-1.00;99.90;;;;;;5076075;28;20012;-70
2022/12/15 05:42:22;;;;;;;43.58;23.77;;;-1.00;99.90;;;;;;5072108;28;20479;-70
2022/12/15 05:44:47;;;;;;;47.40;25.17;;;-1.00;99.90;;;;;;5049817;28;20063;-70
2022/12/15 05:47:13;;;;;;;46.63;24.52;;;-1.00;99.90;;;;;;5071825;28;20381;-70
2022/12/15 05:49:39;;;;;;;48.92;23.58;;;-1.00;99.90;;;;;;5073530;28;20080;-70
2022/12/15 05:52:05;;;;;;;46.72;24.42;;;-1.00;99.90;;;;;;5070487;28;20069;-71
2022/12/15 05:54:31;;;;;;;48.47;23.45;;;-1.00;99.90;;;;;;5074205;28;20088;-71
2022/12/15 05:56:57;;;;;;;47.55;24.30;;;-1.00;99.90;;;;;;5086235;28;20251;-71
2022/12/15 05:59:22;;;;;;;46.63;23.85;;;-0.90;99.90;;;;;;5070859;28;20067;-70
2022/12/15 06:01:48;;;;;;;49.03;24.58;;;-0.90;99.90;;;;;;5077553;28;20452;-71
2022/12/15 06:04:14;;;;;;;47.20;24.17;;;-0.90;99.90;;;;;;5076117;28;20108;-71
2022/12/15 06:06:40;;;;;;;52.00;25.83;;;-0.90;99.90;;;;;;5071818;28;20060;-70
2022/12/15 06:09:06;;;;;;;49.30;24.80;;;-0.90;99.90;;;;;;5080527;28;20082;-71
2022/12/15 06:11:31;;;;;;;52.08;24.10;;;-0.90;99.90;;;;;;5091657;28;20024;-71
2022/12/15 06:13:57;;;;;;;52.75;25.70;;;-0.90;99.90;;;;;;5089934;28;20024;-70
2022/12/15 06:16:24;;;;;;;50.17;24.45;;;-0.90;99.90;;;;;;5084451;28;20048;-70
2022/12/15 06:18:57;;;;;;;46.88;25.27;;;-0.90;99.90;;;;;;5068367;28;20025;-71
2022/12/15 06:21:29;;;;;;;48.15;24.10;;;-0.90;99.90;;;;;;5077918;28;20031;-71
2022/12/15 06:23:55;;;;;;;48.13;23.83;;;-0.90;99.90;;;;;;5080255;28;20021;-71
2022/12/15 06:26:27;;;;;;;47.53;23.90;;;-0.90;99.90;;;;;;5054296;28;20478;-71
2022/12/15 06:28:56;;;;;;;47.03;23.27;;;-0.90;99.90;;;;;;5067785;28;20029;-70
2022/12/15 06:31:24;;;;;;;43.78;23.85;;;-0.90;99.90;;;;;;5069950;28;20478;-71
2022/12/15 06:33:53;;;;;;;45.13;23.40;;;-0.90;99.90;;;;;;5054952;28;20027;-71
2022/12/15 06:36:19;;;;;;;52.60;25.23;;;-0.90;99.90;;;;;;5057252;28;20036;-70
2022/12/15 06:38:45;;;;;;;56.80;26.33;;;-0.90;99.90;;;;;;5074230;28;20025;-70
2022/12/15 06:41:14;;;;;;;47.08;24.73;;;-0.90;99.90;;;;;;5069891;28;20100;-70
2022/12/15 06:43:40;;;;;;;51.10;26.65;;;-0.90;99.90;;;;;;5077014;28;20028;-70
2022/12/15 06:46:07;;;;;;;59.25;29.13;;;-0.80;99.90;;;;;;5075225;28;20057;-70
2022/12/15 06:48:33;;;;;;;55.72;27.70;;;-0.80;99.90;;;;;;5084459;28;20214;-70
2022/12/15 06:51:04;;;;;;;51.13;28.25;;;-0.80;99.90;;;;;;5070656;28;20027;-70
2022/12/15 06:53:31;;;;;;;57.03;28.10;;;-0.70;99.90;;;;;;5086272;28;20032;-69
2022/12/15 06:56:01;;;;;;;64.90;29.88;;;-0.80;99.90;;;;;;5053025;28;20025;-70
2022/12/15 06:58:27;;;;;;;60.65;29.27;;;-0.70;99.90;;;;;;5070115;28;20557;-70
2022/12/15 07:00:53;;;;;;;59.22;30.55;;;-0.80;99.90;;;;;;5079226;28;20046;-70
2022/12/15 07:03:19;;;;;;;63.70;31.63;;;-0.80;99.90;;;;;;5071020;28;20044;-69
2022/12/15 07:05:45;;;;;;;59.50;31.00;;;-0.80;99.90;;;;;;5072924;28;20044;-70
2022/12/15 07:08:13;;;;;;;62.15;32.17;;;-0.70;99.90;;;;;;5070290;28;20023;-69
2022/12/15 07:10:40;;;;;;;60.92;31.55;;;-0.80;99.90;;;;;;5064642;28;20027;-70
2022/12/15 07:13:09;;;;;;;64.45;32.72;;;-0.80;99.90;;;;;;5072438;28;20035;-70
2022/12/15 07:15:35;;;;;;;65.03;32.33;;;-0.80;99.90;;;;;;5056644;28;20116;-70
2022/12/15 07:18:01;;;;;;;69.38;33.75;;;-0.80;99.90;;;;;;5069547;28;20028;-70
2022/12/15 07:20:28;;;;;;;60.33;32.25;;;-0.80;99.90;;;;;;5064165;28;20425;-71
2022/12/15 07:22:54;;;;;;;63.20;32.72;;;-0.80;99.90;;;;;;5059921;28;20024;-70
2022/12/15 07:25:20;;;;;;;57.97;30.55;;;-0.80;99.90;;;;;;5063651;28;20389;-71
2022/12/15 07:27:46;;;;;;;61.58;31.23;;;-0.80;99.90;;;;;;5063345;28;20021;-70
2022/12/15 07:30:13;;;;;;;61.45;29.98;;;-0.80;99.90;;;;;;5062944;28;20020;-70
2022/12/15 07:32:40;;;;;;;58.97;29.88;;;-0.80;99.90;;;;;;5062027;28;20025;-70
2022/12/15 07:35:07;;;;;;;54.85;29.23;;;-0.80;99.90;;;;;;5055098;28;20037;-70
2022/12/15 07:37:33;;;;;;;58.58;29.08;;;-0.80;99.90;;;;;;5064074;28;20107;-71
2022/12/15 07:39:59;;;;;;;58.25;28.27;;;-0.80;99.90;;;;;;5061496;28;20028;-70
2022/12/15 07:42:28;;;;;;;55.72;28.05;;;-0.70;99.90;;;;;;5062026;28;20484;-70
2022/12/15 07:44:54;;;;;;;53.90;27.05;;;-0.70;99.90;;;;;;5062193;28;20369;-70
2022/12/15 07:47:20;;;;;;;51.63;27.02;;;-0.70;99.90;;;;;;5060524;28;20029;-70
2022/12/15 07:49:46;;;;;;;52.60;26.65;;;-0.70;99.90;;;;;;5065916;28;20024;-71
2022/12/15 07:52:12;;;;;;;48.35;25.95;;;-0.70;99.90;;;;;;5064072;28;20098;-71
2022/12/15 07:54:39;;;;;;;55.72;26.27;;;-0.70;99.90;;;;;;5065245;28;20474;-71
2022/12/15 07:57:06;;;;;;;58.92;28.45;;;-0.70;99.90;;;;;;5067952;28;20036;-70
2022/12/15 07:59:33;;;;;;;49.53;27.70;;;-0.70;99.90;;;;;;5063758;28;20367;-70
2022/12/15 08:02:00;;;;;;;58.55;29.40;;;-0.60;99.90;;;;;;5062995;28;20008;-70
2022/12/15 08:04:26;;;;;;;55.42;29.15;;;-0.60;99.90;;;;;;5062757;28;20542;-70
2022/12/15 08:06:56;;;;;;;57.35;28.80;;;-0.60;99.90;;;;;;5060931;28;20028;-70
2022/12/15 08:09:22;;;;;;;56.58;28.23;;;-0.60;99.90;;;;;;5063582;28;20017;-70
2022/12/15 08:11:47;;;;;;;53.10;26.95;;;-0.70;99.90;;;;;;5067219;28;20385;-70
2022/12/15 08:14:14;;;;;;;53.63;27.38;;;-0.70;99.90;;;;;;5061475;28;20474;-70
2022/12/15 08:16:40;;;;;;;52.30;27.08;;;-0.80;99.90;;;;;;5061221;28;20060;-71
2022/12/15 08:19:09;;;;;;;48.85;25.75;;;-0.80;99.90;;;;;;5064209;28;20036;-70
2022/12/15 08:21:35;;;;;;;51.50;26.10;;;-0.90;99.90;;;;;;5040720;28;20036;-70
2022/12/15 08:24:01;;;;;;;49.80;26.48;;;-0.90;99.90;;;;;;5058900;28;20485;-71
2022/12/15 08:26:26;;;;;;;47.05;25.80;;;-0.90;99.90;;;;;;5063173;28;20113;-70
2022/12/15 08:28:53;;;;;;;52.97;25.08;;;-0.90;99.90;;;;;;5068007;28;20481;-70
2022/12/15 08:31:21;;;;;;;49.45;24.80;;;-0.90;99.90;;;;;;5064221;28;20025;-70
2022/12/15 08:33:48;;;;;;;45.28;24.05;;;-0.80;99.90;;;;;;5059139;28;20374;-70
2022/12/15 08:36:16;;;;;;;50.90;24.75;;;-0.80;99.90;;;;;;5067984;28;20032;-70
2022/12/15 08:38:45;;;;;;;50.60;23.80;;;-0.70;99.90;;;;;;5065817;28;20017;-70
2022/12/15 08:41:21;;;;;;;42.30;23.08;;;-0.60;99.90;;;;;;5064349;28;20032;-71
2022/12/15 08:43:48;;;;;;;48.05;24.27;;;-0.60;99.90;;;;;;5060242;28;20036;-71
2022/12/15 08:46:22;;;;;;;53.95;26.27;;;-0.50;99.90;;;;;;5061997;28;20401;-72
2022/12/15 08:48:48;;;;;;;62.03;29.83;;;-0.40;99.90;;;;;;5058712;28;20029;-72
2022/12/15 08:51:15;;;;;;;58.08;29.30;;;-0.30;99.90;;;;;;5057502;28;20036;-72
2022/12/15 08:53:41;;;;;;;60.25;30.05;;;-0.20;99.90;;;;;;5068899;28;20099;-72
2022/12/15 08:56:10;;;;;;;55.63;28.05;;;-0.10;99.90;;;;;;5064320;28;20169;-71
2022/12/15 08:58:37;;;;;;;62.28;29.00;;;0.00;99.90;;;;;;5062966;28;20119;-70
2022/12/15 09:01:08;;;;;;;58.65;28.23;;;0.00;99.90;;;;;;5066051;28;20021;-70
2022/12/15 09:03:35;;;;;;;59.05;28.38;;;0.10;99.90;;;;;;5061335;28;20043;-70
2022/12/15 09:06:06;;;;;;;54.95;28.60;;;0.10;99.90;;;;;;5057382;28;20035;-70
2022/12/15 09:08:32;;;;;;;60.10;28.63;;;0.10;99.90;;;;;;5063004;28;20028;-70
2022/12/15 09:10:59;;;;;;;50.28;25.75;;;0.20;99.90;;;;;;5065455;28;20445;-70
2022/12/15 09:13:25;;;;;;;51.70;25.65;;;0.20;99.90;;;;;;5068846;28;20459;-70
2022/12/15 09:15:59;;;;;;;52.10;25.30;;;0.30;99.90;;;;;;5063070;28;20028;-70
2022/12/15 09:18:25;;;;;;;52.05;25.70;;;0.30;99.90;;;;;;5064455;28;20031;-70
2022/12/15 09:20:52;;;;;;;54.58;25.73;;;0.50;99.90;;;;;;5072238;28;20021;-70
2022/12/15 09:23:19;;;;;;;50.20;26.83;;;0.50;99.90;;;;;;5072601;28;20489;-71
2022/12/15 09:25:45;;;;;;;51.22;25.70;;;0.60;99.90;;;;;;5071935;28;20032;-70
2022/12/15 09:28:13;;;;;;;58.67;26.67;;;0.70;99.90;;;;;;5061755;28;20029;-71
2022/12/15 09:30:38;;;;;;;52.50;26.02;;;0.80;99.90;;;;;;5068546;28;20051;-71
2022/12/15 09:33:04;;;;;;;52.42;26.90;;;0.90;99.90;;;;;;5087237;28;20040;-71
2022/12/15 09:35:30;;;;;;;53.22;27.92;;;0.90;99.90;;;;;;5085819;28;20249;-71
2022/12/15 09:37:57;;;;;;;52.20;27.17;;;1.00;99.90;;;;;;5085535;28;20029;-72
2022/12/15 09:40:23;;;;;;;57.20;27.33;;;1.00;99.90;;;;;;5085789;28;20025;-71
2022/12/15 09:42:52;;;;;;;48.13;25.55;;;1.10;99.90;;;;;;5083698;28;20043;-71
2022/12/15 09:45:36;;;;;;;50.20;25.83;;;1.20;99.90;;;;;;5084268;28;20082;-71
2022/12/15 09:48:08;;;;;;;49.65;26.60;;;1.30;99.90;;;;;;5081405;28;20159;-72
2022/12/15 09:50:37;;;;;;;58.33;28.27;;;1.30;99.90;;;;;;5080105;28;20033;-70
2022/12/15 09:53:08;;;;;;;54.97;28.00;;;1.40;99.90;;;;;;5065124;28;20032;-70
2022/12/15 09:55:34;;;;;;;54.97;27.17;;;1.40;99.90;;;;;;5065122;28;20036;-70
2022/12/15 09:58:25;;;;;;;55.10;27.40;;;1.50;99.90;;;;;;5064956;28;20112;-71
2022/12/15 10:01:07;;;;;;;42.50;23.98;;;1.60;99.90;;;;;;5063949;28;20036;-71
2022/12/15 10:04:00;;;;;;;45.88;23.67;;;1.70;99.90;;;;;;5064986;28;20112;-71
2022/12/15 10:06:37;;;;;;;43.38;22.35;;;1.80;99.90;;;;;;5061778;28;20021;-71
2022/12/15 10:09:12;;;;;;;44.30;21.67;;;1.90;99.90;;;;;;5077456;28;20082;-71
2022/12/15 10:11:58;;;;;;;38.45;21.02;;;1.90;99.90;;;;;;5064477;28;20032;-71
2022/12/15 10:14:53;;;;;;;40.72;20.88;;;2.00;99.90;;;;;;5059690;28;20025;-71
2022/12/15 10:17:22;;;;;;;42.33;21.35;;;2.00;99.90;;;;;;5067021;28;20558;-71
2022/12/15 10:19:48;;;;;;;35.08;20.13;;;2.00;99.90;;;;;;5047983;28;20111;-70
2022/12/15 10:22:21;;;;;;;40.60;20.27;;;2.00;99.90;;;;;;5059466;28;20500;-70
2022/12/15 10:24:47;;;;;;;44.47;21.40;;;2.00;99.90;;;;;;5069433;28;20029;-70
2022/12/15 10:27:25;;;;;;;44.75;22.27;;;2.10;99.90;;;;;;5074905;28;20636;-71
2022/12/15 10:30:08;;;;;;;40.40;22.20;;;2.10;99.90;;;;;;5066586;28;20089;-71
2022/12/15 10:32:43;;;;;;;42.97;22.27;;;2.20;99.90;;;;;;5072980;28;20103;-71
2022/12/15 10:35:17;;;;;;;47.28;24.52;;;2.30;99.90;;;;;;5058331;28;20037;-72
2022/12/15 10:37:43;;;;;;;45.47;23.73;;;2.30;99.90;;;;;;5099731;28;20016;-72
2022/12/15 10:40:18;;;;;;;42.92;22.98;;;2.40;99.90;;;;;;5095242;28;20109;-71
2022/12/15 10:42:49;;;;;;;42.97;23.52;;;2.40;99.90;;;;;;5082604;28;20037;-71
2022/12/15 10:45:36;;;;;;;41.08;24.13;;;2.50;99.90;;;;;;5072756;28;20111;-71
2022/12/15 10:48:05;;;;;;;47.42;25.15;;;2.60;99.90;;;;;;5079264;28;20077;-72
2022/12/15 10:50:32;;;;;;;46.65;25.52;;;2.60;99.90;;;;;;5079424;28;20107;-71
2022/12/15 10:52:58;;;;;;;48.13;25.30;;;2.70;99.90;;;;;;5072717;28;20082;-72
2022/12/15 10:55:42;;;;;;;40.65;24.10;;;2.70;99.90;;;;;;5075944;28;20037;-71
2022/12/15 10:58:22;;;;;;;42.17;24.55;;;2.70;99.90;;;;;;5065046;28;20351;-71
2022/12/15 11:01:05;;;;;;;44.22;23.73;;;2.70;99.90;;;;;;5064438;28;20032;-71
2022/12/15 11:03:36;;;;;;;42.50;23.23;;;2.90;99.90;;;;;;5077138;28;20055;-71
2022/12/15 11:06:13;;;;;;;48.60;23.65;;;2.90;99.90;;;;;;5066498;28;20099;-71
2022/12/15 11:08:42;;;;;;;42.75;23.52;;;3.00;99.90;;;;;;5077264;28;20527;-71
2022/12/15 11:14:19;;;;;;;38.00;21.08;;;3.30;99.90;;;;;;5090630;28;20048;-72
2022/12/15 11:16:48;;;;;;;39.05;20.58;;;3.50;99.90;;;;;;5082071;28;20085;-72
2022/12/15 11:19:32;;;;;;;35.42;17.80;;;3.60;99.90;;;;;;5086071;28;20020;-73
2022/12/15 11:22:23;;;;;;;34.45;17.40;;;3.80;99.90;;;;;;5099272;28;20035;-73
2022/12/15 11:24:55;;;;;;;27.60;14.68;;;3.90;99.90;;;;;;5097892;28;20019;-73
2022/12/15 11:27:39;;;;;;;25.92;14.85;;;4.00;99.90;;;;;;5099568;28;20068;-73
2022/12/15 11:30:13;;;;;;;26.67;13.30;;;4.00;99.90;;;;;;5095113;28;20032;-73
2022/12/15 11:32:52;;;;;;;16.00;8.73;;;4.00;99.90;;;;;;5097393;28;20017;-72
2022/12/15 11:35:40;;;;;;;21.15;10.50;;;4.00;99.90;;;;;;5089706;28;20485;-72
2022/12/15 11:38:33;;;;;;;19.85;9.23;;;4.00;99.90;;;;;;5083863;28;20123;-72
2022/12/15 11:41:12;;;;;;;21.20;8.20;;;3.90;99.90;;;;;;5083341;28;20023;-72
2022/12/15 11:44:15;;;;;;;17.08;7.88;;;3.90;99.90;;;;;;5070398;28;20074;-72
2022/12/15 11:46:55;;;;;;;12.30;6.82;;;3.80;99.90;;;;;;5075817;28;20021;-71
2022/12/15 11:49:42;;;;;;;15.40;6.90;;;3.70;99.90;;;;;;5077078;28;20039;-72
2022/12/15 11:52:36;;;;;;;17.10;6.85;;;3.70;99.90;;;;;;5065216;28;20105;-71
2022/12/15 11:55:21;;;;;;;13.75;6.85;;;3.70;99.90;;;;;;5077322;28;20025;-72
2022/12/15 11:58:17;;;;;;;15.95;6.93;;;3.70;99.90;;;;;;5080656;28;20029;-72
2022/12/15 12:01:11;;;;;;;13.80;7.22;;;3.80;99.90;;;;;;5075093;28;20089;-72
2022/12/15 12:04:15;;;;;;;13.23;7.05;;;3.90;99.90;;;;;;5051055;28;20075;-73
2022/12/15 12:06:53;;;;;;;11.93;6.53;;;4.00;99.90;;;;;;5096611;28;20025;-73
2022/12/15 12:09:42;;;;;;;11.57;6.50;;;4.10;99.90;;;;;;5090957;28;20033;-73
2022/12/15 12:12:26;;;;;;;8.27;5.10;;;4.30;99.90;;;;;;5087797;28;20107;-72
2022/12/15 12:15:10;;;;;;;6.35;4.22;;;4.40;99.90;;;;;;5091816;28;20040;-72
2022/12/15 12:18:13;;;;;;;9.15;4.20;;;4.50;99.90;;;;;;5070466;28;20044;-72
2022/12/15 12:20:55;;;;;;;6.78;4.00;;;4.70;99.90;;;;;;5078261;28;20100;-72
2022/12/15 12:23:38;;;;;;;9.02;3.60;;;4.70;99.90;;;;;;5090902;28;20016;-72
2022/12/15 12:26:19;;;;;;;8.23;4.05;;;4.90;99.90;;;;;;5082214;28;20025;-73
2022/12/15 12:28:55;;;;;;;7.82;3.53;;;4.90;99.90;;;;;;5091910;28;20027;-72
2022/12/15 12:31:36;;;;;;;9.85;3.60;;;5.00;99.90;;;;;;5093131;28;20032;-72
2022/12/15 12:34:13;;;;;;;10.57;3.65;;;5.00;99.90;;;;;;5091964;28;20028;-72
2022/12/15 12:36:42;;;;;;;7.47;3.20;;;5.10;99.90;;;;;;5084549;28;20025;-72
2022/12/15 12:39:16;;;;;;;9.80;3.80;;;5.10;99.90;;;;;;5063151;28;20092;-73
2022/12/15 12:41:50;;;;;;;6.90;3.20;;;5.10;99.90;;;;;;5081944;28;20013;-72
2022/12/15 12:44:35;;;;;;;6.55;2.90;;;5.20;99.90;;;;;;5077076;28;20028;-72
2022/12/15 12:47:22;;;;;;;9.85;3.35;;;5.20;99.90;;;;;;5081375;28;20427;-72
2022/12/15 12:49:53;;;;;;;3.97;2.20;;;5.30;99.90;;;;;;5080688;28;20043;-72
2022/12/15 12:52:29;;;;;;;4.53;2.33;;;5.30;99.90;;;;;;5072320;28;20040;-72
2022/12/15 12:55:19;;;;;;;6.75;2.35;;;5.40;99.90;;;;;;5083804;28;20485;-72
2022/12/15 12:57:46;;;;;;;4.47;2.00;;;5.40;99.90;;;;;;5068830;28;20024;-71
2022/12/15 13:00:29;;;;;;;10.55;2.20;;;5.40;99.90;;;;;;5080582;28;20092;-72
2022/12/15 13:03:08;;;;;;;5.80;2.08;;;5.50;99.90;;;;;;5074204;28;20053;-72
2022/12/15 13:05:36;;;;;;;5.28;1.77;;;5.50;99.90;;;;;;5084754;28;20082;-72
2022/12/15 13:08:05;;;;;;;6.22;1.80;;;5.50;99.90;;;;;;5070765;28;20020;-72
2022/12/15 13:10:39;;;;;;;3.97;1.70;;;5.50;99.90;;;;;;5084139;28;20021;-72
2022/12/15 13:13:31;;;;;;;9.57;1.80;;;5.50;99.90;;;;;;5083449;28;20032;-72
2022/12/15 13:16:05;;;;;;;5.70;1.70;;;5.50;99.90;;;;;;5078387;28;20044;-71
2022/12/15 13:19:00;;;;;;;6.20;1.60;;;5.50;99.90;;;;;;5080936;28;20091;-72
2022/12/15 13:21:45;;;;;;;5.75;1.80;;;5.50;99.90;;;;;;5068064;28;20031;-72
2022/12/15 13:24:44;;;;;;;6.90;1.60;;;5.60;99.90;;;;;;5072464;28;20036;-71
2022/12/15 13:27:10;;;;;;;8.82;1.75;;;5.60;99.90;;;;;;5062413;28;20048;-72
2022/12/15 13:30:12;;;;;;;6.65;1.50;;;5.60;99.90;;;;;;5086524;28;20066;-72
2022/12/15 13:32:44;;;;;;;4.47;1.33;;;5.60;99.90;;;;;;5066358;28;20041;-72
2022/12/15 13:35:13;;;;;;;5.43;1.30;;;5.60;99.90;;;;;;5081541;28;20846;-72
2022/12/15 13:37:51;;;;;;;9.57;1.65;;;5.60;99.90;;;;;;5073564;28;20021;-72
2022/12/15 13:40:35;;;;;;;3.63;1.40;;;5.60;99.90;;;;;;5067481;28;20473;-72
2022/12/15 13:43:04;;;;;;;7.90;1.83;;;5.50;99.90;;;;;;5074172;28;20021;-72
2022/12/15 13:45:40;;;;;;;7.22;1.33;;;5.50;99.90;;;;;;5070892;28;20107;-72
2022/12/15 13:48:32;;;;;;;5.05;1.40;;;5.40;99.90;;;;;;5076441;28;20041;-71
2022/12/15 13:51:19;;;;;;;7.75;1.70;;;5.40;99.90;;;;;;5070097;28;20023;-72
2022/12/15 13:54:14;;;;;;;6.80;1.30;;;5.40;99.90;;;;;;5064852;28;20413;-71
2022/12/15 13:57:12;;;;;;;6.45;1.30;;;5.40;99.90;;;;;;5067133;28;20032;-72
2022/12/15 13:59:50;;;;;;;7.00;1.58;;;5.40;99.90;;;;;;5072141;28;20024;-72
2022/12/15 14:02:32;;;;;;;4.90;1.05;;;5.30;99.90;;;;;;5077357;28;20619;-72
2022/12/15 14:05:06;;;;;;;6.85;1.40;;;5.30;99.90;;;;;;5076322;28;20040;-72
2022/12/15 14:07:34;;;;;;;5.65;1.17;;;5.20;99.90;;;;;;5065076;28;20107;-72
2022/12/15 14:10:00;;;;;;;5.90;1.23;;;5.20;99.90;;;;;;5070260;28;20023;-71
2022/12/15 14:12:26;;;;;;;3.33;1.30;;;5.10;99.90;;;;;;5066281;28;20025;-71
2022/12/15 14:14:52;;;;;;;6.03;1.35;;;5.10;99.90;;;;;;5066113;28;20382;-72
2022/12/15 14:17:19;;;;;;;3.55;1.05;;;5.10;99.90;;;;;;5072126;28;20043;-72
2022/12/15 14:19:49;;;;;;;3.55;1.17;;;5.00;99.90;;;;;;5074326;28;20436;-71
2022/12/15 14:22:24;;;;;;;5.55;1.27;;;5.00;99.90;;;;;;5071806;28;20024;-72
2022/12/15 14:24:52;;;;;;;5.65;1.15;;;5.00;99.90;;;;;;5071106;28;20021;-72
2022/12/15 14:27:29;;;;;;;5.97;1.30;;;4.90;99.90;;;;;;5069292;28;20421;-71
2022/12/15 14:30:24;;;;;;;9.35;1.45;;;4.90;99.90;;;;;;5062341;28;20025;-71
2022/12/15 14:33:06;;;;;;;7.53;1.67;;;4.90;99.90;;;;;;5055053;28;20025;-71
2022/12/15 14:35:39;;;;;;;14.07;2.05;;;4.80;99.90;;;;;;5068919;28;20032;-71
2022/12/15 14:38:10;;;;;;;5.43;1.52;;;4.80;99.90;;;;;;5069751;28;20496;-71
2022/12/15 14:40:38;;;;;;;6.03;1.50;;;4.70;99.90;;;;;;5072374;28;20017;-71
2022/12/15 14:43:08;;;;;;;5.32;1.23;;;4.70;99.90;;;;;;5072084;28;20087;-71
2022/12/15 14:45:34;;;;;;;8.43;1.50;;;4.60;99.90;;;;;;5077493;28;20497;-71
2022/12/15 14:48:06;;;;;;;7.63;1.38;;;4.60;99.90;;;;;;5072866;28;20042;-71
2022/12/15 14:50:33;;;;;;;5.32;1.73;;;4.60;99.90;;;;;;5063929;28;20347;-70
2022/12/15 14:53:04;;;;;;;6.30;1.77;;;4.60;99.90;;;;;;5065251;28;20427;-70
2022/12/15 14:55:34;;;;;;;5.72;1.42;;;4.60;99.90;;;;;;5056220;28;20028;-71
2022/12/15 14:58:01;;;;;;;2.58;1.33;;;4.50;99.90;;;;;;5059278;28;20032;-70
2022/12/15 15:00:47;;;;;;;6.95;1.50;;;4.50;99.90;;;;;;5064817;28;20093;-70
2022/12/15 15:03:17;;;;;;;5.82;1.58;;;4.40;99.90;;;;;;5058852;28;20094;-70
2022/12/15 15:05:52;;;;;;;5.63;1.52;;;4.40;99.90;;;;;;5058325;28;20039;-70
2022/12/15 15:08:29;;;;;;;;;;;4.30;99.90;;;;;;5065658;28;20043;-71
2022/12/15 15:10:58;;;;;;;7.90;2.10;;;4.20;99.90;;;;;;5058211;28;19978;-71
2022/12/15 15:13:35;;;;;;;8.05;2.20;;;4.20;99.90;;;;;;5056896;28;20059;-71
2022/12/15 15:16:06;;;;;;;6.30;2.15;;;4.10;99.90;;;;;;5050916;28;20021;-70
2022/12/15 15:18:32;;;;;;;6.88;2.50;;;4.10;99.90;;;;;;5053521;28;20033;-70
2022/12/15 15:21:02;;;;;;;6.93;2.60;;;4.00;99.90;;;;;;5070271;28;20025;-70
2022/12/15 15:23:28;;;;;;;10.63;2.55;;;3.90;99.90;;;;;;5066126;28;20143;-70
2022/12/15 15:25:55;;;;;;;9.70;2.22;;;3.90;99.90;;;;;;5058888;28;20397;-70
2022/12/15 15:28:28;;;;;;;8.55;2.53;;;3.80;99.90;;;;;;5061754;28;20032;-70
2022/12/15 15:31:03;;;;;;;10.32;2.55;;;3.70;99.90;;;;;;5062063;28;20042;-70
2022/12/15 15:33:30;;;;;;;13.25;2.88;;;3.70;99.90;;;;;;5063133;28;20028;-70